Time;durP1;ratioP1;P1;durP2;ratioP2;P2;SDS_P1;SDS_P2;PMS_P1;PMS_P2;Temp;Humidity;BMP_temperature;BMP_pressure;BME280_temperature;BME280_humidity;BME280_pressure;Samples;Min_cycle;Max_cycle;Signal;HPM_P1;HPM_P2
2022/03/30 00:00:50;;;;;;;24.88;10.25;;;5.50;99.90;;;;;;5086477;22;20097;-81
2022/03/30 00:03:16;;;;;;;22.52;10.20;;;5.50;99.90;;;;;;5083123;28;20047;-81
2022/03/30 00:05:42;;;;;;;24.92;9.82;;;5.10;99.90;;;;;;5102657;22;20052;-81
2022/03/30 00:10:33;;;;;;;24.63;10.35;;;5.40;99.90;;;;;;5162479;22;20180;-81
2022/03/30 00:13:00;;;;;;;24.80;10.50;;;5.70;99.90;;;;;;5106953;27;20054;-81
2022/03/30 00:15:27;;;;;;;24.38;10.65;;;6.50;99.90;;;;;;5102481;22;20053;-81
2022/03/30 00:17:53;;;;;;;25.13;10.27;;;5.30;99.90;;;;;;5123778;27;20365;-81
2022/03/30 00:20:19;;;;;;;24.30;10.38;;;6.40;99.90;;;;;;5103653;22;20044;-81
2022/03/30 00:22:45;;;;;;;23.08;10.48;;;4.60;99.90;;;;;;5085830;28;20104;-81
2022/03/30 00:25:18;;;;;;;25.85;11.02;;;4.90;99.90;;;;;;5084095;22;20078;-81
2022/03/30 00:27:46;;;;;;;29.20;10.73;;;5.10;99.90;;;;;;5094894;22;20095;-81
2022/03/30 00:30:14;;;;;;;25.95;11.00;;;5.60;99.90;;;;;;5098997;22;20051;-81
2022/03/30 00:32:40;;;;;;;29.98;10.65;;;5.70;99.90;;;;;;5082776;22;20094;-81
2022/03/30 00:35:07;;;;;;;24.65;10.55;;;5.10;99.90;;;;;;5073585;22;20119;-81
2022/03/30 00:37:34;;;;;;;24.65;10.57;;;5.10;99.90;;;;;;5065840;28;20103;-81
2022/03/30 00:40:00;;;;;;;28.48;10.77;;;5.10;99.90;;;;;;5070171;22;20052;-81
2022/03/30 00:42:26;;;;;;;24.67;10.57;;;5.10;99.90;;;;;;5075389;22;20048;-81
2022/03/30 00:44:53;;;;;;;30.75;11.60;;;6.50;99.90;;;;;;5091660;22;20071;-81
2022/03/30 00:47:23;;;;;;;25.20;11.20;;;5.10;99.90;;;;;;5091541;22;20098;-82
2022/03/30 00:49:49;;;;;;;24.58;10.48;;;5.10;99.90;;;;;;5107338;22;20075;-81
2022/03/30 00:52:16;;;;;;;24.17;10.13;;;6.00;99.90;;;;;;5104616;22;20040;-82
2022/03/30 00:54:44;;;;;;;25.20;10.55;;;5.90;99.90;;;;;;5093407;22;20436;-81
2022/03/30 00:57:20;;;;;;;25.77;10.60;;;5.70;99.90;;;;;;5073822;22;20432;-82
2022/03/30 00:59:48;;;;;;;25.40;9.77;;;5.20;99.90;;;;;;5057556;22;20044;-81
2022/03/30 01:02:14;;;;;;;26.38;11.45;;;4.40;99.90;;;;;;5103374;22;20069;-81
2022/03/30 01:04:40;;;;;;;26.40;10.40;;;5.10;99.90;;;;;;5112069;22;20458;-81
2022/03/30 01:07:06;;;;;;;23.83;10.63;;;5.00;99.90;;;;;;5120455;22;20058;-82
2022/03/30 01:09:32;;;;;;;24.58;11.00;;;4.90;99.90;;;;;;5112458;22;20047;-81
2022/03/30 01:11:58;;;;;;;27.98;11.23;;;4.60;99.90;;;;;;5119701;22;20096;-81
2022/03/30 01:14:25;;;;;;;22.40;9.98;;;5.20;99.90;;;;;;5109199;22;20139;-81
2022/03/30 01:16:52;;;;;;;25.50;10.27;;;5.50;99.90;;;;;;5092434;22;20048;-81
2022/03/30 01:19:21;;;;;;;24.88;10.85;;;5.10;99.90;;;;;;5089552;22;20060;-82
2022/03/30 01:21:47;;;;;;;27.63;10.68;;;6.60;99.90;;;;;;5093518;22;20063;-81
2022/03/30 01:24:15;;;;;;;30.23;10.85;;;5.20;99.90;;;;;;5088482;22;20052;-82
2022/03/30 01:26:42;;;;;;;23.20;10.18;;;7.00;99.90;;;;;;5117140;22;20051;-81
2022/03/30 01:34:44;;;;;;;25.60;11.30;;;6.70;99.90;;;;;;5129735;22;20067;-81
2022/03/30 01:37:11;;;;;;;30.30;11.45;;;5.60;99.90;;;;;;5104678;27;20150;-81
2022/03/30 01:39:37;;;;;;;28.20;11.55;;;4.90;99.90;;;;;;5102102;22;20430;-81
2022/03/30 01:42:04;;;;;;;29.83;11.65;;;4.80;99.90;;;;;;5094960;22;20044;-81
2022/03/30 01:44:30;;;;;;;25.38;11.50;;;5.20;99.90;;;;;;5077114;22;20051;-81
2022/03/30 01:46:56;;;;;;;26.45;11.27;;;5.20;99.90;;;;;;5089981;22;20052;-81
2022/03/30 01:49:22;;;;;;;27.58;11.70;;;4.60;99.90;;;;;;5068873;22;20059;-81
2022/03/30 01:51:49;;;;;;;28.55;12.45;;;5.10;99.90;;;;;;5071901;22;20397;-81
2022/03/30 01:54:26;;;;;;;32.92;12.00;;;5.30;99.90;;;;;;5078831;22;20473;-82
2022/03/30 01:56:54;;;;;;;25.80;11.07;;;7.00;99.90;;;;;;5092634;22;20476;-81
2022/03/30 01:59:21;;;;;;;29.02;11.95;;;5.30;99.90;;;;;;5074041;22;20047;-81
2022/03/30 02:01:47;;;;;;;32.83;12.55;;;5.40;99.90;;;;;;5065034;28;20087;-81
2022/03/30 02:04:13;;;;;;;26.63;11.38;;;5.50;99.90;;;;;;5069508;22;20071;-81
2022/03/30 02:06:39;;;;;;;26.23;11.75;;;6.60;99.90;;;;;;5072369;22;20048;-81
2022/03/30 02:09:06;;;;;;;26.55;11.32;;;5.40;99.90;;;;;;5070136;22;20059;-81
2022/03/30 02:11:33;;;;;;;25.80;11.27;;;5.50;99.90;;;;;;5072338;22;20437;-81
2022/03/30 02:14:00;;;;;;;28.20;12.10;;;5.50;99.90;;;;;;5079477;22;20139;-81
2022/03/30 02:16:26;;;;;;;26.38;12.20;;;5.50;99.90;;;;;;5082486;22;20075;-81
2022/03/30 02:18:52;;;;;;;29.58;12.32;;;6.60;99.90;;;;;;5104968;27;20092;-81
2022/03/30 02:21:18;;;;;;;26.77;11.38;;;7.10;99.90;;;;;;5084304;22;20437;-81
2022/03/30 02:23:45;;;;;;;27.42;11.57;;;5.60;99.90;;;;;;5064044;28;20055;-81
2022/03/30 02:26:15;;;;;;;24.95;10.73;;;5.60;99.90;;;;;;5068273;22;20045;-81
2022/03/30 02:28:42;;;;;;;28.35;11.02;;;5.70;99.90;;;;;;5099448;22;20052;-81
2022/03/30 02:31:07;;;;;;;26.70;11.23;;;5.60;99.90;;;;;;5080472;22;20109;-80
2022/03/30 02:33:33;;;;;;;31.83;11.40;;;6.20;99.90;;;;;;5086221;22;20195;-80
2022/03/30 02:36:00;;;;;;;28.77;12.00;;;5.50;99.90;;;;;;5091194;22;20108;-80
2022/03/30 02:38:25;;;;;;;32.20;12.18;;;5.70;99.90;;;;;;5068350;22;20489;-80
2022/03/30 02:40:51;;;;;;;29.85;11.63;;;5.60;99.90;;;;;;5076430;22;20192;-80
2022/03/30 02:43:19;;;;;;;25.70;10.60;;;5.70;99.90;;;;;;5111118;22;20052;-81
2022/03/30 02:45:46;;;;;;;27.38;11.55;;;5.70;99.90;;;;;;5086320;22;20113;-80
2022/03/30 02:48:18;;;;;;;32.42;12.15;;;5.50;99.90;;;;;;5069176;22;20554;-80
2022/03/30 02:50:48;;;;;;;27.92;11.68;;;6.40;99.90;;;;;;5071581;22;20055;-80
2022/03/30 02:53:21;;;;;;;29.23;11.25;;;6.40;99.90;;;;;;5082591;22;20071;31
2022/03/30 02:55:48;;;;;;;25.55;11.90;;;7.40;99.90;;;;;;5110114;22;20058;-80
2022/03/30 02:58:14;;;;;;;29.73;11.48;;;5.70;99.90;;;;;;5118548;22;20070;-81
2022/03/30 03:00:42;;;;;;;25.10;11.57;;;6.60;99.90;;;;;;5111385;22;20055;-80
2022/03/30 03:05:42;;;;;;;27.80;11.40;;;5.80;99.90;;;;;;5111046;22;20066;-80
2022/03/30 03:08:11;;;;;;;22.98;11.10;;;5.80;99.90;;;;;;5107456;22;20054;-80
2022/03/30 03:10:43;;;;;;;26.05;11.75;;;5.80;99.90;;;;;;5099752;22;20073;-80
2022/03/30 03:13:16;;;;;;;28.98;11.35;;;5.90;99.90;;;;;;5105440;27;20047;-80
2022/03/30 03:15:42;;;;;;;26.83;11.82;;;6.00;99.90;;;;;;5102197;27;20077;-80
2022/03/30 03:18:14;;;;;;;28.33;11.65;;;6.10;99.90;;;;;;5076235;22;20048;-80
2022/03/30 03:20:44;;;;;;;27.40;11.10;;;5.90;99.90;;;;;;5090168;22;21156;-81
2022/03/30 03:23:16;;;;;;;29.15;11.85;;;5.80;99.90;;;;;;5093782;22;20048;-81
2022/03/30 03:25:42;;;;;;;31.45;11.85;;;5.80;99.90;;;;;;5095561;22;20418;-81
2022/03/30 03:28:10;;;;;;;31.42;11.55;;;5.80;99.90;;;;;;5083461;28;20043;-81
2022/03/30 03:30:37;;;;;;;30.63;12.73;;;7.00;99.90;;;;;;5103381;22;20055;-81
2022/03/30 03:33:04;;;;;;;31.23;12.80;;;7.00;99.90;;;;;;5103867;27;20043;-81
2022/03/30 03:35:30;;;;;;;32.28;13.15;;;5.80;99.90;;;;;;5117932;22;20055;-81
2022/03/30 03:37:57;;;;;;;30.73;13.50;;;5.90;99.90;;;;;;5099097;22;20382;-81
2022/03/30 03:40:24;;;;;;;30.23;13.18;;;5.90;99.90;;;;;;5119487;22;20082;-82
2022/03/30 03:42:49;;;;;;;29.40;12.52;;;7.10;99.90;;;;;;5103638;27;20050;-80
2022/03/30 03:45:18;;;;;;;36.20;12.95;;;5.90;99.90;;;;;;5103690;28;20401;-81
2022/03/30 03:47:44;;;;;;;29.80;12.95;;;6.20;99.90;;;;;;5119825;28;20039;-81
2022/03/30 03:50:11;;;;;;;31.42;13.07;;;6.30;99.90;;;;;;5102742;28;20083;-81
2022/03/30 03:52:37;;;;;;;35.55;13.93;;;5.90;99.90;;;;;;5086811;22;20136;-81
2022/03/30 03:55:03;;;;;;;33.53;13.85;;;6.20;99.90;;;;;;5076237;28;20041;-81
2022/03/30 03:57:29;;;;;;;33.45;12.70;;;5.90;99.90;;;;;;5059398;28;20086;-81
2022/03/30 03:59:55;;;;;;;31.20;13.35;;;5.10;99.90;;;;;;5075813;28;20131;-81
2022/03/30 04:02:21;;;;;;;31.67;14.05;;;6.30;99.90;;;;;;5098115;22;20072;-81
2022/03/30 04:04:47;;;;;;;30.88;14.10;;;6.40;99.90;;;;;;5102629;28;20400;-81
2022/03/30 04:07:12;;;;;;;32.38;12.98;;;5.90;99.90;;;;;;5103269;28;20138;-81
2022/03/30 04:09:38;;;;;;;30.70;13.20;;;5.90;99.90;;;;;;5120314;28;20046;-81
2022/03/30 04:12:05;;;;;;;38.15;14.48;;;7.50;99.90;;;;;;5094554;22;20448;-81
2022/03/30 04:14:31;;;;;;;33.33;13.18;;;5.90;99.90;;;;;;5073753;22;20127;-81
2022/03/30 04:16:57;;;;;;;31.15;11.75;;;5.80;99.90;;;;;;5096729;22;20121;-81
2022/03/30 04:19:22;;;;;;;29.00;11.93;;;5.80;99.90;;;;;;5087022;22;20185;-81
2022/03/30 04:21:48;;;;;;;26.15;11.05;;;4.90;99.90;;;;;;5091331;22;20080;-80
2022/03/30 04:24:21;;;;;;;24.13;10.40;;;6.80;99.90;;;;;;5068332;22;20053;31
2022/03/30 04:26:47;;;;;;;25.15;9.50;;;5.70;99.90;;;;;;5083316;22;20069;-81
2022/03/30 04:29:13;;;;;;;20.50;8.07;;;5.70;99.90;;;;;;5083462;22;20051;-81
2022/03/30 04:31:38;;;;;;;11.07;5.03;;;5.80;99.90;;;;;;5076073;28;20425;-81
2022/03/30 04:34:04;;;;;;;10.43;4.53;;;5.70;99.90;;;;;;5060635;28;20090;-81
2022/03/30 04:36:30;;;;;;;8.20;3.03;;;5.70;99.90;;;;;;5069316;22;20143;-81
2022/03/30 04:38:56;;;;;;;5.30;2.30;;;6.70;99.90;;;;;;5062183;28;20107;-81
2022/03/30 04:41:23;;;;;;;4.93;1.85;;;5.60;99.90;;;;;;5061270;28;20052;-82
2022/03/30 04:43:49;;;;;;;5.80;1.60;;;5.60;99.90;;;;;;5064147;28;20044;-82
2022/03/30 04:46:15;;;;;;;3.45;1.40;;;6.10;99.90;;;;;;5077674;28;20490;-82
2022/03/30 04:48:41;;;;;;;4.20;1.20;;;6.30;99.90;;;;;;5078469;22;20069;-82
2022/03/30 04:51:07;;;;;;;2.28;0.90;;;6.80;99.90;;;;;;5041500;22;1097070;-82
2022/03/30 04:53:34;;;;;;;2.97;1.02;;;6.10;99.90;;;;;;5069579;22;20098;-82
2022/03/30 04:55:59;;;;;;;2.63;0.88;;;6.80;99.90;;;;;;5070933;22;20379;-82
2022/03/30 04:58:25;;;;;;;2.17;0.90;;;5.50;99.90;;;;;;5075243;22;20172;-82
2022/03/30 05:00:51;;;;;;;2.30;0.90;;;6.30;99.90;;;;;;5079274;22;20056;-82
2022/03/30 05:03:25;;;;;;;3.10;0.98;;;6.90;99.90;;;;;;5077566;22;20483;-82
2022/03/30 05:05:51;;;;;;;3.28;1.00;;;5.30;99.90;;;;;;5101713;22;20055;-81
2022/03/30 05:08:20;;;;;;;2.92;1.00;;;5.20;99.90;;;;;;5098420;22;20444;-82
2022/03/30 05:10:50;;;;;;;1.95;0.80;;;5.30;99.90;;;;;;5095685;22;20487;-81
2022/03/30 05:13:16;;;;;;;3.05;0.93;;;6.30;99.90;;;;;;5092796;22;20062;-84
2022/03/30 05:15:41;;;;;;;3.92;1.00;;;6.40;99.90;;;;;;5083672;22;20094;-81
2022/03/30 05:18:14;;;;;;;3.47;1.10;;;5.20;99.90;;;;;;5078163;22;20056;-82
2022/03/30 05:20:43;;;;;;;4.65;1.38;;;6.70;99.90;;;;;;5117277;22;20039;-81
2022/03/30 05:23:15;;;;;;;3.58;1.00;;;5.00;99.90;;;;;;5120262;22;20138;-81
2022/03/30 05:25:42;;;;;;;3.60;0.98;;;5.20;99.90;;;;;;5077154;22;20063;-81
2022/03/30 05:28:14;;;;;;;3.50;1.23;;;6.70;99.90;;;;;;5083605;22;20059;-82
2022/03/30 05:30:40;;;;;;;3.40;1.00;;;4.30;99.90;;;;;;5098271;22;20067;-81
2022/03/30 05:33:06;;;;;;;2.63;1.00;;;5.10;99.90;;;;;;5083332;22;20083;-81
2022/03/30 05:35:31;;;;;;;2.55;1.08;;;5.70;99.90;;;;;;5071505;22;20143;-82
2022/03/30 05:37:57;;;;;;;2.67;1.13;;;6.50;99.90;;;;;;5080045;22;20064;-81
2022/03/30 05:40:23;;;;;;;2.42;0.90;;;6.20;99.90;;;;;;5091298;22;20398;-81
2022/03/30 05:42:48;;;;;;;3.47;1.08;;;4.70;99.90;;;;;;5093887;22;20048;-81
2022/03/30 05:45:14;;;;;;;2.83;1.00;;;5.90;99.90;;;;;;5079292;22;20078;-82
2022/03/30 05:47:41;;;;;;;3.58;1.45;;;6.30;99.90;;;;;;5080948;22;20070;-81
2022/03/30 05:50:09;;;;;;;3.90;0.90;;;4.90;99.90;;;;;;5081531;22;20056;-82
2022/03/30 05:52:35;;;;;;;4.45;1.25;;;4.90;99.90;;;;;;5085981;22;20053;-81
2022/03/30 05:55:01;;;;;;;4.60;1.58;;;6.00;99.90;;;;;;5098768;22;20391;-81
2022/03/30 05:57:27;;;;;;;5.18;1.27;;;4.80;99.90;;;;;;5085739;22;20387;-81
2022/03/30 05:59:52;;;;;;;3.08;1.00;;;5.60;99.90;;;;;;5097965;22;20097;-81
2022/03/30 06:02:18;;;;;;;3.40;1.20;;;5.50;99.90;;;;;;5062306;28;20047;-81
2022/03/30 06:04:49;;;;;;;3.30;1.05;;;6.10;99.90;;;;;;5077509;22;20139;-80
2022/03/30 06:07:21;;;;;;;3.38;1.30;;;6.00;99.90;;;;;;5077905;22;20055;-81
2022/03/30 06:09:47;;;;;;;3.53;1.38;;;4.60;99.90;;;;;;5099618;22;20055;-81
2022/03/30 06:12:13;;;;;;;3.40;1.30;;;5.80;99.90;;;;;;5126299;22;20519;-82
2022/03/30 06:14:39;;;;;;;4.00;1.20;;;4.60;99.90;;;;;;5102712;27;20047;-81
2022/03/30 06:17:07;;;;;;;5.53;1.35;;;6.70;99.90;;;;;;5092096;22;20486;-81
2022/03/30 06:19:33;;;;;;;3.28;1.15;;;5.00;99.90;;;;;;5083904;22;20062;-81
2022/03/30 06:22:01;;;;;;;2.28;1.10;;;6.50;99.90;;;;;;5076895;22;20045;-82
2022/03/30 06:24:27;;;;;;;3.67;1.10;;;4.30;99.90;;;;;;5069229;22;20451;-82
2022/03/30 06:26:53;;;;;;;3.17;1.20;;;5.00;99.90;;;;;;5095986;22;20114;-82
2022/03/30 06:29:19;;;;;;;4.03;1.27;;;5.00;99.90;;;;;;5102409;27;20045;-82
2022/03/30 06:31:44;;;;;;;4.32;1.30;;;6.70;99.90;;;;;;5098697;22;20063;-82
2022/03/30 06:34:10;;;;;;;3.75;1.60;;;6.50;99.90;;;;;;5076983;28;20048;-82
2022/03/30 06:36:38;;;;;;;3.08;1.35;;;5.20;99.90;;;;;;5060054;28;20046;-83
2022/03/30 06:39:04;;;;;;;3.50;1.30;;;6.60;99.90;;;;;;5060050;28;20047;-83
2022/03/30 06:41:30;;;;;;;4.72;1.40;;;6.60;99.90;;;;;;5060466;28;20086;-82
2022/03/30 06:43:56;;;;;;;3.10;1.25;;;6.00;99.90;;;;;;5096272;28;20036;-83
2022/03/30 06:46:24;;;;;;;3.00;1.20;;;5.40;99.90;;;;;;5076883;28;20047;-88
2022/03/30 06:48:49;;;;;;;5.38;1.35;;;5.50;99.90;;;;;;5074919;22;20049;-86
2022/03/30 06:51:15;;;;;;;3.38;1.20;;;5.50;99.90;;;;;;5057582;28;20059;-83
2022/03/30 06:53:42;;;;;;;5.68;1.38;;;6.10;99.90;;;;;;5056920;28;20040;-83
2022/03/30 06:56:08;;;;;;;4.53;1.48;;;5.30;99.90;;;;;;5053598;28;20041;-85
2022/03/30 06:58:34;;;;;;;7.25;1.25;;;5.60;99.90;;;;;;5053099;28;20487;-84
2022/03/30 07:01:00;;;;;;;4.53;1.30;;;5.70;99.90;;;;;;5036326;28;20103;-85
2022/03/30 07:03:27;;;;;;;4.43;1.40;;;5.70;99.90;;;;;;5052818;28;20044;-85
2022/03/30 07:05:54;;;;;;;3.88;1.33;;;5.70;99.90;;;;;;5058007;28;20044;-84
2022/03/30 07:11:03;;;;;;;4.63;1.38;;;5.90;99.90;;;;;;5051992;28;20053;-85
2022/03/30 07:13:29;;;;;;;3.25;1.23;;;6.00;99.90;;;;;;5054075;28;20047;-85
2022/03/30 07:15:55;;;;;;;3.53;1.40;;;6.00;99.90;;;;;;5036569;28;20049;-83
2022/03/30 07:18:21;;;;;;;3.47;1.50;;;6.10;99.90;;;;;;5055765;28;20037;-91
2022/03/30 07:20:46;;;;;;;4.47;1.38;;;6.20;99.90;;;;;;5054126;28;20487;-91
2022/03/30 07:23:14;;;;;;;3.17;1.30;;;6.20;99.90;;;;;;5052931;28;20049;-89
2022/03/30 07:25:40;;;;;;;4.80;1.20;;;6.30;99.90;;;;;;5052826;28;20045;-89
2022/03/30 07:28:06;;;;;;;4.90;1.20;;;6.40;99.90;;;;;;5053212;28;20391;-89
2022/03/30 07:30:32;;;;;;;4.60;1.60;;;6.40;99.90;;;;;;5052965;28;20076;-90
2022/03/30 07:32:59;;;;;;;5.18;1.50;;;6.40;99.90;;;;;;5054059;28;20037;-90
2022/03/30 07:35:32;;;;;;;3.67;1.30;;;6.40;99.90;;;;;;5052967;28;20502;-91
2022/03/30 07:37:59;;;;;;;5.40;1.23;;;6.90;99.90;;;;;;5036222;28;20422;-90
2022/03/30 07:40:24;;;;;;;4.00;1.30;;;6.50;99.90;;;;;;5052943;28;20194;-89
2022/03/30 07:45:17;;;;;;;3.05;1.45;;;6.50;99.90;;;;;;5174488;22;20074;-90
2022/03/30 07:47:43;;;;;;;3.50;1.20;;;6.50;99.90;;;;;;5095646;28;20050;-90
2022/03/30 07:50:10;;;;;;;3.30;1.40;;;6.60;99.90;;;;;;5095825;28;20542;-90
2022/03/30 07:52:37;;;;;;;5.35;1.23;;;7.40;99.90;;;;;;5115976;28;20047;-89
2022/03/30 07:55:04;;;;;;;4.57;1.30;;;6.70;99.90;;;;;;5115657;28;20061;-88
2022/03/30 07:57:30;;;;;;;6.03;1.25;;;6.80;99.90;;;;;;5112476;28;20131;-91
2022/03/30 08:00:02;;;;;;;7.70;1.30;;;6.80;99.90;;;;;;5095882;28;20122;-89
2022/03/30 08:02:27;;;;;;;8.32;1.40;;;7.30;99.90;;;;;;5112818;28;20040;-91
2022/03/30 08:04:54;;;;;;;6.45;1.52;;;6.70;99.90;;;;;;5113022;28;20082;-89
2022/03/30 08:07:22;;;;;;;4.80;1.30;;;7.40;99.90;;;;;;5112940;28;20047;-88
2022/03/30 08:09:48;;;;;;;5.03;1.30;;;7.10;99.90;;;;;;5095834;28;20075;-88
2022/03/30 08:12:15;;;;;;;3.65;1.30;;;7.20;99.90;;;;;;5096163;28;20433;-89
2022/03/30 08:14:42;;;;;;;6.30;1.55;;;7.10;99.90;;;;;;5113319;28;20090;-91
2022/03/30 08:17:09;;;;;;;6.03;1.38;;;7.10;99.90;;;;;;5096190;28;20036;-89
2022/03/30 08:19:35;;;;;;;5.28;1.48;;;7.30;99.90;;;;;;5112941;28;20070;-89
2022/03/30 08:24:47;;;;;;;4.05;1.30;;;7.10;99.90;;;;;;5117680;28;20404;-90
2022/03/30 08:27:17;;;;;;;4.40;1.35;;;7.10;99.90;;;;;;5116975;28;20053;-90
2022/03/30 08:29:46;;;;;;;4.72;1.35;;;7.20;99.90;;;;;;5100152;28;20032;-90
2022/03/30 08:32:16;;;;;;;5.50;1.17;;;7.70;99.90;;;;;;5116800;28;20039;-91
2022/03/30 08:34:44;;;;;;;4.32;1.27;;;7.20;99.90;;;;;;5117272;28;20044;-89
2022/03/30 08:37:11;;;;;;;3.63;1.20;;;6.80;99.90;;;;;;5116949;28;20148;-89
2022/03/30 08:39:36;;;;;;;4.50;1.20;;;6.50;99.90;;;;;;5117865;28;20159;-90
2022/03/30 08:42:07;;;;;;;4.57;1.27;;;7.40;99.90;;;;;;5116718;28;20538;-90
2022/03/30 08:44:34;;;;;;;4.72;1.10;;;7.50;99.90;;;;;;5098959;28;20066;-89
2022/03/30 08:47:00;;;;;;;4.93;1.17;;;7.50;99.90;;;;;;5116363;28;20050;-89
2022/03/30 08:49:27;;;;;;;6.10;1.13;;;7.30;99.90;;;;;;5116416;28;20044;-89
2022/03/30 08:51:54;;;;;;;3.42;1.10;;;7.70;99.90;;;;;;5116448;28;20130;-90
2022/03/30 08:54:20;;;;;;;5.40;1.20;;;6.90;99.90;;;;;;5116351;28;20048;-89
2022/03/30 08:56:47;;;;;;;3.95;1.05;;;7.80;99.90;;;;;;5116300;28;20093;-90
2022/03/30 08:59:17;;;;;;;4.35;1.50;;;7.80;99.90;;;;;;5115968;28;20044;-89
2022/03/30 09:01:43;;;;;;;3.30;1.08;;;7.80;99.90;;;;;;5116190;28;20075;-89
2022/03/30 09:04:12;;;;;;;5.93;1.30;;;8.90;99.90;;;;;;5116404;28;20043;-90
2022/03/30 09:06:42;;;;;;;4.78;1.10;;;7.00;99.90;;;;;;5115973;28;20043;-90
2022/03/30 09:09:09;;;;;;;4.68;1.15;;;8.60;99.90;;;;;;5115936;28;20043;-89
2022/03/30 09:11:41;;;;;;;4.32;1.10;;;7.00;99.90;;;;;;5117171;28;20478;-89
2022/03/30 09:14:09;;;;;;;4.50;1.10;;;7.90;99.90;;;;;;5117242;28;20047;-90
2022/03/30 09:16:39;;;;;;;3.15;1.00;;;7.80;99.90;;;;;;5117276;28;20093;-90
2022/03/30 09:19:08;;;;;;;2.95;1.00;;;7.80;99.90;;;;;;5115813;28;20047;-90
2022/03/30 09:21:47;;;;;;;4.05;1.10;;;7.80;99.90;;;;;;5115872;28;20051;-90
2022/03/30 09:24:19;;;;;;;5.07;1.20;;;7.90;99.90;;;;;;5098793;28;20044;-90
2022/03/30 09:26:46;;;;;;;3.30;1.00;;;8.00;99.90;;;;;;5115885;28;20393;-90
2022/03/30 09:29:13;;;;;;;2.95;1.00;;;8.00;99.90;;;;;;5098651;28;20035;-91
2022/03/30 09:31:41;;;;;;;5.47;1.10;;;8.10;99.90;;;;;;5115387;28;20046;-90
2022/03/30 09:34:08;;;;;;;3.65;1.35;;;8.10;99.90;;;;;;5115134;28;20112;-89
2022/03/30 09:36:42;;;;;;;3.97;1.20;;;8.30;99.90;;;;;;5115626;28;20055;-91
2022/03/30 09:39:25;;;;;;;4.43;1.10;;;8.30;99.90;;;;;;5115494;28;20044;-90
2022/03/30 09:41:53;;;;;;;3.45;1.05;;;7.70;99.90;;;;;;5116132;28;20051;-90
2022/03/30 09:44:21;;;;;;;3.35;1.45;;;8.30;99.90;;;;;;5098508;28;20401;-91
2022/03/30 09:46:54;;;;;;;5.75;1.30;;;8.60;99.90;;;;;;5115800;28;20131;-88
2022/03/30 09:49:49;;;;;;;4.72;1.08;;;8.20;99.90;;;;;;5115779;28;20469;-90
2022/03/30 09:52:27;;;;;;;5.35;1.15;;;8.50;99.90;;;;;;5116507;28;20047;-90
2022/03/30 09:54:55;;;;;;;5.22;1.30;;;8.50;99.90;;;;;;5115272;28;20044;-90
2022/03/30 09:57:26;;;;;;;6.07;1.20;;;8.50;99.90;;;;;;5098220;28;20477;-91
2022/03/30 10:00:04;;;;;;;4.18;1.33;;;9.20;99.90;;;;;;5115287;28;20492;-91
2022/03/30 10:02:32;;;;;;;3.38;1.30;;;8.80;99.90;;;;;;5114813;28;20050;-90
2022/03/30 10:04:59;;;;;;;4.50;1.25;;;8.70;99.90;;;;;;5115198;28;20086;-90
2022/03/30 10:07:27;;;;;;;6.22;1.40;;;8.20;99.90;;;;;;5115311;28;20039;-91
2022/03/30 10:09:53;;;;;;;3.17;1.15;;;8.60;99.90;;;;;;5114875;28;20039;-90
2022/03/30 10:12:19;;;;;;;5.53;1.15;;;9.30;99.90;;;;;;5114826;28;20047;-91
2022/03/30 10:14:47;;;;;;;4.00;1.02;;;8.60;99.90;;;;;;5098088;28;20405;-89
2022/03/30 10:17:13;;;;;;;3.42;0.95;;;8.60;99.90;;;;;;5114724;28;20049;-91
2022/03/30 10:19:42;;;;;;;2.90;0.90;;;8.50;99.90;;;;;;5098504;28;20067;-91
2022/03/30 10:22:40;;;;;;;2.63;0.93;;;8.80;99.90;;;;;;5097783;28;20047;-89
2022/03/30 10:25:48;;;;;;;4.18;1.08;;;8.80;99.90;;;;;;5114540;28;20052;-90
2022/03/30 10:28:20;;;;;;;6.15;1.02;;;9.00;99.90;;;;;;5098020;28;20493;-91
2022/03/30 10:30:54;;;;;;;2.53;0.85;;;9.00;99.90;;;;;;5098849;28;20039;-90
2022/03/30 10:33:36;;;;;;;2.78;0.80;;;9.10;99.90;;;;;;5115029;28;20047;-90
2022/03/30 10:36:27;;;;;;;2.70;0.85;;;8.40;99.90;;;;;;5114904;28;20047;-90
2022/03/30 10:39:05;;;;;;;3.13;0.88;;;9.30;99.90;;;;;;5116872;28;20134;-89
2022/03/30 10:41:52;;;;;;;3.30;0.90;;;9.30;99.90;;;;;;5118324;28;20055;-89
2022/03/30 10:44:44;;;;;;;5.07;1.00;;;9.30;99.90;;;;;;5122930;28;20127;-90
2022/03/30 10:47:23;;;;;;;3.35;0.80;;;9.30;99.90;;;;;;5124763;28;20055;-89
2022/03/30 10:49:51;;;;;;;4.20;1.00;;;9.30;99.90;;;;;;5103817;28;20040;-89
2022/03/30 10:52:39;;;;;;;3.25;0.70;;;10.00;99.90;;;;;;5114607;28;20052;-89
2022/03/30 10:55:14;;;;;;;2.50;0.90;;;9.30;99.90;;;;;;5114419;28;20134;-88
2022/03/30 10:57:43;;;;;;;4.70;1.00;;;9.30;99.90;;;;;;5114212;28;20052;-90
2022/03/30 11:00:18;;;;;;;2.72;0.70;;;9.30;99.90;;;;;;5099589;28;20111;-90
2022/03/30 11:02:49;;;;;;;;;;;10.10;99.90;;;;;;5115244;28;20042;-90
2022/03/30 11:05:24;;;;;;;4.05;0.90;;;9.40;99.90;;;;;;5114139;28;20362;-89
2022/03/30 11:07:50;;;;;;;2.25;0.73;;;9.60;99.90;;;;;;5113784;28;20160;-90
2022/03/30 11:10:19;;;;;;;2.70;0.77;;;9.60;99.90;;;;;;5096887;28;20068;-90
2022/03/30 11:13:11;;;;;;;3.47;0.80;;;9.80;99.90;;;;;;5113829;28;20043;-89
2022/03/30 11:16:07;;;;;;;3.33;0.75;;;10.00;99.90;;;;;;5096546;28;20043;-90
2022/03/30 11:18:33;;;;;;;2.85;0.90;;;10.30;99.90;;;;;;5096484;28;20036;-89
2022/03/30 11:21:20;;;;;;;3.97;0.80;;;10.80;99.90;;;;;;5113565;28;20093;-87
2022/03/30 11:24:11;;;;;;;4.22;0.80;;;10.40;99.90;;;;;;5096316;28;20492;-89
2022/03/30 11:26:49;;;;;;;1.83;0.75;;;10.30;99.90;;;;;;5113337;28;20562;-87
2022/03/30 11:29:52;;;;;;;2.97;0.70;;;10.10;99.90;;;;;;5117746;28;20052;-86
2022/03/30 11:32:32;;;;;;;2.72;0.80;;;9.90;99.90;;;;;;5113692;28;20054;-88
2022/03/30 11:34:59;;;;;;;2.40;0.70;;;9.80;99.90;;;;;;5113547;28;20055;-88
2022/03/30 11:37:28;;;;;;;2.92;0.80;;;9.60;99.90;;;;;;5113453;28;20043;-87
2022/03/30 11:40:14;;;;;;;3.20;0.77;;;9.70;99.90;;;;;;5096096;28;20044;-88
2022/03/30 11:42:41;;;;;;;;;;;9.70;99.90;;;;;;5097608;28;20130;-90
2022/03/30 11:45:20;;;;;;;1.73;0.68;;;9.70;99.90;;;;;;5113357;28;19926;-90
2022/03/30 11:47:54;;;;;;;2.70;0.70;;;9.80;99.90;;;;;;5113471;28;20056;-89
2022/03/30 11:50:24;;;;;;;2.63;0.70;;;10.20;99.90;;;;;;5113206;28;20047;-91
2022/03/30 11:52:55;;;;;;;2.50;0.70;;;10.50;99.90;;;;;;5096193;28;20039;-90
2022/03/30 11:55:22;;;;;;;2.22;0.60;;;10.70;99.90;;;;;;5114566;28;20036;-91
2022/03/30 11:57:50;;;;;;;2.40;0.63;;;11.60;99.90;;;;;;5115005;28;20039;-91
2022/03/30 12:00:16;;;;;;;1.88;0.60;;;11.50;99.90;;;;;;5117118;28;20051;-90
2022/03/30 12:02:44;;;;;;;2.70;0.70;;;11.50;99.90;;;;;;5117404;28;20062;-91
2022/03/30 12:05:09;;;;;;;1.38;0.50;;;11.00;99.90;;;;;;5117142;28;20134;-90
2022/03/30 12:07:37;;;;;;;2.33;0.57;;;11.20;99.90;;;;;;5117451;28;20071;-89
2022/03/30 12:10:06;;;;;;;3.38;0.80;;;11.20;99.90;;;;;;5117479;28;20472;-90
2022/03/30 12:12:36;;;;;;;2.75;0.70;;;11.00;99.90;;;;;;5117134;28;20523;-90
2022/03/30 12:15:17;;;;;;;2.92;0.73;;;10.70;99.90;;;;;;5117218;28;20143;-90
2022/03/30 12:17:51;;;;;;;3.05;0.77;;;10.40;99.90;;;;;;5100329;28;20035;-91
2022/03/30 12:20:24;;;;;;;3.80;0.90;;;10.30;99.90;;;;;;5118221;28;20066;-89
2022/03/30 12:22:58;;;;;;;3.28;0.80;;;10.50;99.90;;;;;;5118230;28;20047;-91
2022/03/30 12:25:27;;;;;;;1.83;0.70;;;10.30;99.90;;;;;;5118281;28;20043;-89
2022/03/30 12:27:53;;;;;;;2.10;0.80;;;10.50;99.90;;;;;;5117194;28;20036;-91
2022/03/30 12:30:19;;;;;;;2.95;0.85;;;10.60;99.90;;;;;;5100136;28;20401;-91
2022/03/30 12:32:45;;;;;;;3.28;0.88;;;10.60;99.90;;;;;;5116616;28;20050;-91
2022/03/30 12:35:14;;;;;;;2.88;0.90;;;10.60;99.90;;;;;;5116542;28;20047;-91
2022/03/30 12:37:43;;;;;;;2.47;0.80;;;11.00;99.90;;;;;;5099623;28;20082;-91
2022/03/30 12:40:22;;;;;;;4.00;1.00;;;10.70;99.90;;;;;;5116378;28;20508;-90
2022/03/30 12:42:49;;;;;;;2.80;0.90;;;11.60;99.90;;;;;;5116756;28;20048;-91
2022/03/30 12:45:17;;;;;;;3.45;0.70;;;11.80;99.90;;;;;;5116498;28;20074;-91
2022/03/30 12:47:53;;;;;;;2.95;0.90;;;11.50;99.90;;;;;;5116288;28;20051;-91
2022/03/30 12:50:26;;;;;;;2.50;0.80;;;11.70;99.90;;;;;;5116567;28;20120;-91
2022/03/30 12:52:54;;;;;;;3.25;0.80;;;12.00;99.90;;;;;;5118379;28;20071;-90
2022/03/30 12:55:32;;;;;;;3.67;0.73;;;11.30;99.90;;;;;;5116459;28;20043;-90
2022/03/30 12:57:59;;;;;;;2.47;0.80;;;11.20;99.90;;;;;;5116520;28;20081;-91
2022/03/30 13:00:34;;;;;;;3.20;0.82;;;10.40;99.90;;;;;;5116312;28;20508;-91
2022/03/30 13:03:06;;;;;;;2.53;0.82;;;10.70;99.90;;;;;;5116280;28;20524;-90
2022/03/30 13:05:32;;;;;;;2.83;0.90;;;10.40;99.90;;;;;;5116157;28;20047;-90
2022/03/30 13:07:58;;;;;;;3.67;1.05;;;10.20;99.90;;;;;;5116089;28;20050;-90
2022/03/30 13:10:25;;;;;;;4.85;1.20;;;9.90;99.90;;;;;;5115063;28;20043;-91
2022/03/30 13:12:55;;;;;;;3.90;0.80;;;9.00;99.90;;;;;;5099290;28;20093;-89
2022/03/30 13:15:23;;;;;;;4.60;0.82;;;9.50;99.90;;;;;;5115977;28;20124;-90
2022/03/30 13:18:04;;;;;;;3.60;1.20;;;9.40;99.90;;;;;;5115664;28;20553;-91